createdAt,value
2023-01-05T00:01:45.848Z,45.75
2023-01-05T00:04:14.866Z,48.72
2023-01-05T00:06:44.036Z,37.38
2023-01-05T00:09:15.943Z,36.35
2023-01-05T00:12:18.868Z,39.42
2023-01-05T00:15:16.098Z,48.15
2023-01-05T00:18:08.623Z,42.17
2023-01-05T00:21:00.123Z,46.15
2023-01-05T00:23:37.973Z,40.20
2023-01-05T00:26:07.752Z,41.25
2023-01-05T00:28:38.994Z,44.88
2023-01-05T00:31:08.230Z,44.92
2023-01-05T00:33:42.511Z,41.35
2023-01-05T00:36:11.248Z,42.25
2023-01-05T00:38:39.748Z,41.63
2023-01-05T00:41:13.367Z,40.58
2023-01-05T00:43:41.695Z,44.63
2023-01-05T00:46:14.805Z,36.33
2023-01-05T00:48:43.309Z,39.25
2023-01-05T00:51:17.105Z,39.70
2023-01-05T00:53:45.639Z,36.85
2023-01-05T00:56:15.727Z,36.85
2023-01-05T00:58:44.044Z,36.97
2023-01-05T01:01:12.667Z,39.40
2023-01-05T01:03:42.195Z,43.03
2023-01-05T01:06:21.131Z,32.85
2023-01-05T01:09:13.537Z,36.92
2023-01-05T01:11:43.533Z,36.85
2023-01-05T01:14:14.654Z,30.38
2023-01-05T01:16:43.940Z,37.40
2023-01-05T01:19:18.908Z,30.80
2023-01-05T01:21:47.759Z,32.75
2023-01-05T01:24:18.226Z,38.13
2023-01-05T01:26:51.080Z,93.03
2023-01-05T01:29:21.827Z,52.85
2023-01-05T01:31:52.068Z,33.72
2023-01-05T01:34:20.883Z,24.92
2023-01-05T01:36:49.595Z,27.75
2023-01-05T01:39:23.230Z,27.00
2023-01-05T01:42:00.536Z,59.88
2023-01-05T01:45:00.927Z,38.90
2023-01-05T01:47:48.056Z,27.40
2023-01-05T01:50:23.767Z,34.40
2023-01-05T01:52:55.998Z,36.13
2023-01-05T01:55:24.700Z,22.48
2023-01-05T01:57:55.260Z,38.80
2023-01-05T02:00:26.760Z,20.80
2023-01-05T02:02:57.441Z,28.75
2023-01-05T02:05:30.567Z,21.13
2023-01-05T02:07:58.840Z,22.55
2023-01-05T02:10:43.777Z,21.63
2023-01-05T02:13:32.269Z,25.25
2023-01-05T02:16:08.342Z,18.33
2023-01-05T02:19:02.403Z,22.90
2023-01-05T02:21:40.691Z,27.67
2023-01-05T02:24:52.003Z,27.77
2023-01-05T02:27:49.022Z,22.73
2023-01-05T02:30:59.537Z,27.67
2023-01-05T02:33:56.760Z,25.20
2023-01-05T02:36:31.351Z,26.30
2023-01-05T02:39:08.870Z,35.42
2023-01-05T02:41:41.159Z,31.35
2023-01-05T02:44:16.436Z,31.08
2023-01-05T02:46:46.382Z,31.50
2023-01-05T02:49:17.703Z,36.13
2023-01-05T02:51:52.997Z,35.05
2023-01-05T02:54:27.912Z,34.22
2023-01-05T02:57:00.987Z,30.05
2023-01-05T02:59:36.871Z,37.55
2023-01-05T03:02:10.825Z,36.78
2023-01-05T03:04:47.978Z,33.53
2023-01-05T03:07:20.451Z,47.88
2023-01-05T03:09:50.492Z,41.03
2023-01-05T03:12:42.557Z,37.53
2023-01-05T03:15:21.051Z,37.83
2023-01-05T03:17:54.982Z,37.33
2023-01-05T03:20:27.418Z,35.38
2023-01-05T03:23:16.577Z,36.15
2023-01-05T03:26:03.030Z,33.58
2023-01-05T03:28:58.228Z,36.75
2023-01-05T03:31:54.623Z,34.78
2023-01-05T03:34:49.134Z,42.85
2023-01-05T03:37:26.890Z,29.38
2023-01-05T03:39:55.450Z,31.20
2023-01-05T03:42:24.287Z,28.50
2023-01-05T03:44:52.710Z,29.08
2023-01-05T03:47:21.101Z,39.33
2023-01-05T03:49:52.530Z,30.25
2023-01-05T03:52:21.071Z,31.73
2023-01-05T03:54:49.379Z,30.27
2023-01-05T03:57:17.835Z,34.17
2023-01-05T03:59:46.548Z,24.65
2023-01-05T04:02:15.884Z,26.95
2023-01-05T04:04:44.957Z,20.17
2023-01-05T04:07:31.202Z,19.92
2023-01-05T04:10:01.302Z,14.38
2023-01-05T04:12:33.159Z,21.17
2023-01-05T04:15:01.445Z,24.02
2023-01-05T04:17:29.961Z,24.58
2023-01-05T04:19:59.261Z,15.93
2023-01-05T04:22:30.074Z,13.88
2023-01-05T04:25:00.914Z,15.23
2023-01-05T04:27:37.687Z,19.83
2023-01-05T04:30:08.741Z,15.45
2023-01-05T04:32:37.509Z,18.17
2023-01-05T04:35:11.016Z,15.80
2023-01-05T04:37:42.651Z,18.30
2023-01-05T04:40:12.866Z,14.43
2023-01-05T04:42:49.663Z,17.65
2023-01-05T04:45:18.278Z,15.20
2023-01-05T04:47:47.929Z,13.57
2023-01-05T04:50:19.902Z,16.98
2023-01-05T04:52:58.755Z,13.32
2023-01-05T04:55:29.675Z,17.85
2023-01-05T04:57:58.142Z,13.80
2023-01-05T05:00:26.727Z,12.32
2023-01-05T05:02:58.658Z,11.90
2023-01-05T05:05:27.062Z,11.77
2023-01-05T05:07:58.780Z,10.40
2023-01-05T05:10:29.961Z,17.00
2023-01-05T05:12:58.317Z,10.23
2023-01-05T05:15:26.897Z,13.50
2023-01-05T05:17:55.206Z,10.40
2023-01-05T05:20:24.361Z,12.32
2023-01-05T05:22:55.147Z,11.90
2023-01-05T05:25:25.751Z,10.93
2023-01-05T05:27:54.271Z,11.60
2023-01-05T05:30:24.638Z,12.82
2023-01-05T05:32:52.906Z,8.95
2023-01-05T05:35:21.150Z,41.42
2023-01-05T05:37:54.526Z,11.57
2023-01-05T05:40:26.743Z,12.50
2023-01-05T05:42:55.229Z,12.82
2023-01-05T05:45:23.570Z,16.23
2023-01-05T05:47:51.802Z,10.30
2023-01-05T05:50:20.072Z,10.38
2023-01-05T05:52:49.260Z,9.27
2023-01-05T05:55:17.633Z,8.98
2023-01-05T05:57:47.258Z,14.10
2023-01-05T06:00:16.679Z,8.30
2023-01-05T06:02:45.114Z,8.35
2023-01-05T06:05:13.459Z,6.78
2023-01-05T06:07:47.825Z,6.88
2023-01-05T06:10:16.137Z,7.63
2023-01-05T06:12:46.336Z,5.65
2023-01-05T06:15:14.795Z,5.65
2023-01-05T06:17:43.096Z,8.35
2023-01-05T06:20:11.737Z,8.13
2023-01-05T06:22:40.031Z,10.23
2023-01-05T06:25:09.587Z,7.07
2023-01-05T06:27:38.123Z,8.05
2023-01-05T06:30:09.335Z,9.88
2023-01-05T06:32:37.837Z,6.43
2023-01-05T06:35:06.787Z,7.55
2023-01-05T06:37:35.016Z,9.02
2023-01-05T06:40:06.355Z,6.90
2023-01-05T06:42:34.599Z,8.75
2023-01-05T06:45:03.090Z,8.93
2023-01-05T06:47:32.964Z,7.78
2023-01-05T06:50:01.562Z,10.32
2023-01-05T06:52:29.854Z,9.02
2023-01-05T06:55:00.944Z,10.90
2023-01-05T06:57:32.217Z,7.85
2023-01-05T07:00:00.524Z,8.98
2023-01-05T07:02:28.929Z,7.93
2023-01-05T07:04:58.530Z,14.18
2023-01-05T07:07:26.827Z,12.32
2023-01-05T07:09:55.139Z,9.40
2023-01-05T07:12:23.636Z,10.88
2023-01-05T07:14:57.711Z,9.32
2023-01-05T07:17:26.608Z,13.23
2023-01-05T07:19:56.200Z,10.55
2023-01-05T07:22:25.973Z,14.48
2023-01-05T07:24:54.314Z,17.17
2023-01-05T07:27:22.624Z,11.82
2023-01-05T07:29:51.162Z,14.85
2023-01-05T07:32:19.344Z,12.30
2023-01-05T07:34:54.815Z,13.20
2023-01-05T07:37:25.866Z,13.85
2023-01-05T07:39:54.281Z,18.42
2023-01-05T07:42:22.517Z,11.90
2023-01-05T07:44:52.561Z,13.15
2023-01-05T07:47:20.916Z,19.80
2023-01-05T07:49:53.983Z,12.15
2023-01-05T07:52:22.370Z,14.27
2023-01-05T07:54:52.133Z,16.60
2023-01-05T07:57:20.335Z,17.58
2023-01-05T07:59:51.562Z,22.45
2023-01-05T08:02:20.412Z,14.63
2023-01-05T08:04:49.184Z,17.70
2023-01-05T08:07:19.429Z,20.40
2023-01-05T08:10:05.575Z,22.35
2023-01-05T08:12:59.510Z,21.60
2023-01-05T08:15:27.829Z,19.63
2023-01-05T08:17:56.159Z,17.23
2023-01-05T08:20:25.766Z,18.45
2023-01-05T08:22:54.766Z,26.38
2023-01-05T08:25:23.166Z,18.02
2023-01-05T08:27:52.843Z,23.73
2023-01-05T08:30:21.700Z,24.60
2023-01-05T08:32:50.079Z,22.27
2023-01-05T08:35:18.662Z,23.50
2023-01-05T08:37:46.895Z,20.95
2023-01-05T08:40:15.406Z,22.70
2023-01-05T08:42:43.649Z,26.40
2023-01-05T08:45:13.600Z,20.05
2023-01-05T08:47:45.160Z,23.83
2023-01-05T08:50:13.964Z,25.65
2023-01-05T08:52:42.471Z,23.08
2023-01-05T08:55:11.964Z,16.42
2023-01-05T08:57:40.349Z,14.85
2023-01-05T09:00:10.920Z,17.02
2023-01-05T09:02:40.950Z,21.48
2023-01-05T09:05:10.007Z,16.67
2023-01-05T09:07:38.919Z,11.98
2023-01-05T09:10:08.106Z,16.33
2023-01-05T09:12:37.063Z,13.80
2023-01-05T09:15:07.387Z,8.18
2023-01-05T09:17:41.116Z,11.75
2023-01-05T09:20:20.986Z,12.73
2023-01-05T09:22:49.813Z,8.77
2023-01-05T09:25:18.677Z,13.60
2023-01-05T09:27:47.284Z,8.85
2023-01-05T09:30:17.586Z,9.30
2023-01-05T09:32:45.867Z,6.00
2023-01-05T09:35:18.699Z,17.00
2023-01-05T09:37:47.515Z,11.48
2023-01-05T09:40:15.938Z,15.80
2023-01-05T09:42:47.816Z,8.02
2023-01-05T09:45:25.535Z,17.73
2023-01-05T09:47:56.308Z,10.43
2023-01-05T09:50:28.033Z,9.95
2023-01-05T09:52:58.531Z,10.00
2023-01-05T09:55:35.940Z,10.63
2023-01-05T09:58:08.805Z,8.07
2023-01-05T10:00:39.904Z,8.30
2023-01-05T10:03:29.521Z,6.28
2023-01-05T10:06:07.460Z,12.90
2023-01-05T10:08:40.483Z,9.98
2023-01-05T10:11:30.946Z,7.85
2023-01-05T10:14:03.620Z,17.63
2023-01-05T10:16:34.381Z,11.40
2023-01-05T10:19:08.056Z,10.48
2023-01-05T10:22:06.720Z,12.85
2023-01-05T10:24:47.962Z,16.75
2023-01-05T10:27:25.836Z,10.73
2023-01-05T10:30:05.588Z,12.77
2023-01-05T10:32:50.120Z,15.18
2023-01-05T10:35:59.707Z,15.88
2023-01-05T10:38:38.443Z,21.95
2023-01-05T10:41:18.753Z,17.23
2023-01-05T10:44:12.676Z,17.65
2023-01-05T10:46:50.342Z,17.27
2023-01-05T10:49:26.061Z,20.92
2023-01-05T10:51:57.421Z,26.35
2023-01-05T10:54:37.463Z,19.10
2023-01-05T10:57:46.784Z,21.65
2023-01-05T11:00:18.265Z,32.47
2023-01-05T11:03:07.442Z,32.08
2023-01-05T11:05:41.210Z,23.98
2023-01-05T11:08:22.235Z,22.67
2023-01-05T11:10:54.167Z,19.92
2023-01-05T11:13:31.134Z,21.67
2023-01-05T11:16:09.574Z,20.60
2023-01-05T11:18:50.313Z,25.70
2023-01-05T11:21:22.761Z,25.65
2023-01-05T11:23:58.646Z,22.02
2023-01-05T11:26:36.468Z,20.95
2023-01-05T11:29:16.440Z,21.95
2023-01-05T11:31:51.164Z,23.90
2023-01-05T11:34:31.480Z,23.45
2023-01-05T11:37:07.619Z,21.20
2023-01-05T11:39:42.660Z,26.45
2023-01-05T11:42:25.041Z,25.83
2023-01-05T11:44:56.584Z,25.40
2023-01-05T11:47:41.374Z,22.02
2023-01-05T11:50:21.710Z,30.42
2023-01-05T11:52:57.871Z,30.85
2023-01-05T11:55:35.568Z,26.52
2023-01-05T11:58:22.700Z,27.90
2023-01-05T12:01:22.482Z,34.78
2023-01-05T12:04:27.825Z,20.48
2023-01-05T12:07:18.491Z,17.60
2023-01-05T12:09:54.359Z,14.30
2023-01-05T12:12:38.419Z,15.23
2023-01-05T12:15:45.240Z,15.20
2023-01-05T12:18:56.938Z,17.67
2023-01-05T12:21:27.060Z,16.40
2023-01-05T12:24:45.007Z,24.50
2023-01-05T12:27:41.168Z,12.13
2023-01-05T12:34:11.366Z,11.57
2023-01-05T12:36:56.649Z,12.93
2023-01-05T12:39:48.478Z,10.10
2023-01-05T13:15:11.066Z,12.00
2023-01-05T13:17:49.255Z,8.52
2023-01-05T13:20:36.707Z,13.63
2023-01-05T13:23:11.214Z,13.18
2023-01-05T13:26:06.146Z,10.75
2023-01-05T13:28:42.907Z,8.77
2023-01-05T13:31:52.756Z,16.25
2023-01-05T13:34:46.769Z,13.10
2023-01-05T13:37:45.018Z,8.15
2023-01-05T13:41:19.671Z,8.85
2023-01-05T13:44:35.827Z,9.68
2023-01-05T13:47:56.414Z,7.90
2023-01-05T13:51:05.387Z,12.63
2023-01-05T13:53:38.939Z,9.27
2023-01-05T13:56:18.973Z,10.95
2023-01-05T13:59:12.073Z,14.95
2023-01-05T14:01:53.373Z,12.68
2023-01-05T14:04:38.775Z,4.55
2023-01-05T14:07:15.749Z,9.45
2023-01-05T14:09:48.248Z,14.75
2023-01-05T14:12:51.403Z,10.38
2023-01-05T14:15:51.206Z,12.30
2023-01-05T14:19:10.244Z,7.93
2023-01-05T14:22:38.326Z,8.05
2023-01-05T14:25:48.370Z,8.55
2023-01-05T14:29:18.399Z,8.68
2023-01-05T14:31:51.082Z,12.32
2023-01-05T14:34:22.383Z,8.13
2023-01-05T14:37:31.301Z,5.18
2023-01-05T14:40:49.089Z,9.70
2023-01-05T14:43:49.730Z,6.97
2023-01-05T14:49:06.414Z,7.00
2023-01-05T14:51:52.911Z,11.15
2023-01-05T14:55:21.807Z,11.05
2023-01-05T14:58:15.996Z,13.32
2023-01-05T15:00:58.322Z,5.88
2023-01-05T15:03:58.437Z,14.95
2023-01-05T15:06:50.932Z,12.15
2023-01-05T15:10:40.104Z,6.15
2023-01-05T15:14:10.747Z,17.27
2023-01-05T15:17:27.149Z,7.80
2023-01-05T15:20:49.076Z,8.05
2023-01-05T15:23:34.973Z,12.13
2023-01-05T15:26:37.619Z,9.52
2023-01-05T15:29:36.084Z,9.73
2023-01-05T15:32:18.309Z,12.05
2023-01-05T15:34:54.834Z,12.65
2023-01-05T15:37:37.744Z,5.80
2023-01-05T15:40:35.919Z,5.43
2023-01-05T15:43:12.926Z,6.45
2023-01-05T15:45:46.393Z,8.00
2023-01-05T15:48:25.159Z,5.28
2023-01-05T15:50:59.234Z,5.03
2023-01-05T15:53:30.169Z,5.55
2023-01-05T15:56:04.369Z,7.88
2023-01-05T15:58:44.470Z,10.30
2023-01-05T16:01:18.115Z,4.97
2023-01-05T16:03:53.177Z,5.82
2023-01-05T16:06:30.744Z,5.13
2023-01-05T16:09:12.996Z,14.55
2023-01-05T16:11:55.019Z,6.32
2023-01-05T16:14:40.901Z,7.20
2023-01-05T16:17:14.887Z,9.23
2023-01-05T16:19:53.369Z,6.88
2023-01-05T16:22:37.435Z,6.63
2023-01-05T16:25:15.046Z,9.23
2023-01-05T16:27:48.813Z,8.93
2023-01-05T16:30:29.334Z,9.02
2023-01-05T16:33:11.786Z,8.15
2023-01-05T16:35:46.333Z,7.47
2023-01-05T16:38:17.966Z,5.72
2023-01-05T16:41:24.439Z,9.43
2023-01-05T16:44:03.865Z,8.32
2023-01-05T16:46:44.228Z,4.40
2023-01-05T16:49:34.186Z,5.05
2023-01-05T16:52:11.201Z,5.97
2023-01-05T16:54:41.726Z,6.65
2023-01-05T16:57:33.892Z,5.40
2023-01-05T17:00:08.028Z,5.95
2023-01-05T17:02:46.043Z,6.03
2023-01-05T17:05:30.715Z,7.25
2023-01-05T17:08:05.749Z,5.57
2023-01-05T17:10:38.281Z,6.80
2023-01-05T17:13:34.597Z,4.90
2023-01-05T17:16:19.191Z,6.07
2023-01-05T17:18:48.164Z,7.22
2023-01-05T17:21:22.445Z,5.05
2023-01-05T17:23:57.370Z,6.85
2023-01-05T17:26:30.755Z,5.68
2023-01-05T17:29:00.934Z,7.18
2023-01-05T17:31:34.875Z,9.23
2023-01-05T17:34:04.935Z,7.88
2023-01-05T17:36:41.474Z,9.02
2023-01-05T17:39:20.092Z,10.82
2023-01-05T17:42:04.876Z,7.28
2023-01-05T17:44:44.973Z,7.88
2023-01-05T17:47:23.082Z,8.23
2023-01-05T17:50:20.071Z,10.07
2023-01-05T17:52:56.915Z,7.22
2023-01-05T17:55:35.137Z,10.23
2023-01-05T17:58:07.562Z,10.90
2023-01-05T18:00:39.835Z,6.18
2023-01-05T18:03:18.511Z,8.27
2023-01-05T18:05:47.391Z,8.73
2023-01-05T18:08:24.707Z,9.48
2023-01-05T18:10:53.173Z,7.53
2023-01-05T18:13:22.932Z,6.57
2023-01-05T18:16:13.103Z,7.97
2023-01-05T18:18:43.083Z,9.32
2023-01-05T18:21:20.559Z,7.95
2023-01-05T18:23:54.087Z,8.02
2023-01-05T18:26:26.343Z,8.70
2023-01-05T18:28:57.653Z,8.52
2023-01-05T18:31:29.320Z,7.57
2023-01-05T18:34:02.075Z,11.57
2023-01-05T18:36:40.569Z,8.48
2023-01-05T18:39:11.661Z,8.48
2023-01-05T18:41:53.132Z,7.47
2023-01-05T18:44:24.439Z,8.23
2023-01-05T18:46:55.024Z,9.77
2023-01-05T18:49:25.989Z,10.15
2023-01-05T18:52:04.761Z,7.97
2023-01-05T18:54:33.251Z,8.15
2023-01-05T18:57:01.639Z,8.32
2023-01-05T18:59:39.564Z,10.60
2023-01-05T19:02:19.855Z,7.90
2023-01-05T19:04:52.196Z,9.13
2023-01-05T19:08:03.596Z,11.32
2023-01-05T19:10:40.515Z,9.23
2023-01-05T19:13:26.250Z,12.32
2023-01-05T19:15:55.974Z,12.13
2023-01-05T19:18:49.672Z,12.85
2023-01-05T19:21:26.047Z,10.73
2023-01-05T19:23:56.488Z,18.73
2023-01-05T19:32:53.914Z,15.68
2023-01-05T19:38:30.083Z,15.65
2023-01-05T19:41:07.082Z,13.02
2023-01-05T19:43:41.824Z,11.68
2023-01-05T19:46:24.317Z,11.95
2023-01-05T19:49:07.619Z,11.57
2023-01-05T19:51:38.790Z,15.38
2023-01-05T19:54:19.546Z,15.13
2023-01-05T19:56:50.181Z,11.93
2023-01-05T19:59:27.451Z,15.20
2023-01-05T20:02:01.325Z,12.98
2023-01-05T20:04:29.852Z,11.82
2023-01-05T20:07:18.123Z,9.27
2023-01-05T20:09:50.673Z,11.75
2023-01-05T20:12:34.048Z,10.77
2023-01-05T20:15:03.695Z,15.00
2023-01-05T20:17:53.248Z,11.48
2023-01-05T20:20:25.798Z,11.45
2023-01-05T20:23:01.874Z,10.95
2023-01-05T20:25:58.601Z,11.68
2023-01-05T20:28:30.114Z,9.13
2023-01-05T20:31:05.041Z,11.95
2023-01-05T20:33:52.823Z,12.10
2023-01-05T20:36:46.470Z,10.90
2023-01-05T20:39:23.534Z,8.90
2023-01-05T20:41:57.153Z,9.32
2023-01-05T20:44:38.544Z,8.13
2023-01-05T20:47:10.588Z,9.57
2023-01-05T20:49:45.468Z,8.65
2023-01-05T20:52:20.927Z,11.15
2023-01-05T20:54:59.404Z,10.55
2023-01-05T20:57:29.661Z,10.77
2023-01-05T21:00:01.302Z,11.73
2023-01-05T21:02:30.754Z,13.27
2023-01-05T21:04:59.333Z,9.65
2023-01-05T21:07:42.910Z,12.32
2023-01-05T21:10:11.333Z,13.60
2023-01-05T21:12:44.040Z,13.77
2023-01-05T21:15:13.842Z,12.88
2023-01-05T21:17:43.783Z,9.48
2023-01-05T21:20:12.814Z,9.30
2023-01-05T21:22:44.842Z,10.75
2023-01-05T21:25:21.549Z,9.45
2023-01-05T21:27:51.665Z,10.60
2023-01-05T21:30:21.723Z,13.00
2023-01-05T21:32:53.140Z,8.85
2023-01-05T21:35:30.456Z,10.55
2023-01-05T21:37:58.785Z,13.25
2023-01-05T21:40:27.842Z,12.30
2023-01-05T21:43:02.475Z,13.93
2023-01-05T21:45:35.398Z,9.48
2023-01-05T21:48:03.781Z,8.43
2023-01-05T21:50:57.464Z,10.65
2023-01-05T21:53:44.244Z,9.68
2023-01-05T21:56:30.538Z,10.70
2023-01-05T21:59:01.449Z,9.48
2023-01-05T22:01:30.680Z,12.75
2023-01-05T22:03:59.392Z,9.77
2023-01-05T22:06:28.115Z,9.85
2023-01-05T22:08:56.467Z,10.50
2023-01-05T22:11:25.933Z,10.25
2023-01-05T22:13:54.395Z,8.43
2023-01-05T22:16:27.762Z,9.25
2023-01-05T22:18:56.829Z,10.68
2023-01-05T22:21:25.228Z,10.13
2023-01-05T22:23:53.885Z,11.35
2023-01-05T22:26:22.355Z,11.75
2023-01-05T22:28:52.277Z,13.43
2023-01-05T22:31:28.205Z,12.27
2023-01-05T22:34:01.868Z,12.80
2023-01-05T22:36:32.059Z,12.20
2023-01-05T22:39:00.779Z,12.75
2023-01-05T22:41:31.685Z,11.25
2023-01-05T22:44:02.366Z,13.05
2023-01-05T22:46:32.757Z,9.45
2023-01-05T22:49:03.529Z,10.98
2023-01-05T22:51:36.156Z,13.65
2023-01-05T22:54:06.003Z,9.93
2023-01-05T22:56:42.284Z,10.35
2023-01-05T22:59:10.693Z,9.23
2023-01-05T23:01:47.559Z,10.57
2023-01-05T23:04:16.891Z,12.77
2023-01-05T23:06:48.272Z,9.43
2023-01-05T23:09:22.618Z,11.00
2023-01-05T23:11:53.141Z,9.77
2023-01-05T23:14:24.399Z,10.95
2023-01-05T23:16:54.509Z,10.60
2023-01-05T23:19:23.051Z,11.85
2023-01-05T23:21:51.475Z,12.18
2023-01-05T23:24:19.859Z,14.23
2023-01-05T23:26:51.884Z,15.05
2023-01-05T23:29:20.769Z,12.25
2023-01-05T23:31:53.472Z,12.48
2023-01-05T23:34:24.721Z,14.38
2023-01-05T23:36:56.028Z,13.20
2023-01-05T23:39:33.255Z,13.07
2023-01-05T23:42:01.645Z,14.10
2023-01-05T23:44:29.864Z,11.48
2023-01-05T23:46:58.313Z,14.70
2023-01-05T23:49:28.663Z,14.32
2023-01-05T23:52:26.703Z,16.48
2023-01-05T23:55:00.815Z,13.20
2023-01-05T23:57:35.397Z,13.32
